createdAt,value
2023-05-18T00:00:03.483Z,0.60
2023-05-18T00:01:03.553Z,0.65
2023-05-18T00:02:03.607Z,0.86
2023-05-18T00:03:03.775Z,0.55
2023-05-18T00:04:03.825Z,0.57
2023-05-18T00:05:03.806Z,0.60
2023-05-18T00:06:03.853Z,0.68
2023-05-18T00:07:03.924Z,0.60
2023-05-18T00:08:03.979Z,0.71
2023-05-18T00:09:04.057Z,0.73
2023-05-18T00:10:04.232Z,0.60
2023-05-18T00:11:04.163Z,0.60
2023-05-18T00:12:04.235Z,0.73
2023-05-18T00:13:04.283Z,0.59
2023-05-18T00:14:04.351Z,0.47
2023-05-18T00:15:04.422Z,0.53
2023-05-18T00:16:04.473Z,0.53
2023-05-18T00:17:04.554Z,0.44
2023-05-18T00:18:04.601Z,0.73
2023-05-18T00:19:04.603Z,0.76
2023-05-18T00:20:04.558Z,0.67
2023-05-18T00:21:04.559Z,0.53
2023-05-18T00:22:04.570Z,0.52
2023-05-18T00:23:04.589Z,0.57
2023-05-18T00:24:04.588Z,0.70
2023-05-18T00:25:04.592Z,0.81
2023-05-18T00:26:04.590Z,0.71
2023-05-18T00:27:04.614Z,0.47
2023-05-18T00:28:04.624Z,0.73
2023-05-18T00:29:04.647Z,0.80
2023-05-18T00:30:04.630Z,0.85
2023-05-18T00:31:04.685Z,0.69
2023-05-18T00:32:04.701Z,0.48
2023-05-18T00:33:04.713Z,0.69
2023-05-18T00:34:04.688Z,0.66
2023-05-18T00:35:04.675Z,0.62
2023-05-18T00:36:04.665Z,0.62
2023-05-18T00:37:04.665Z,0.58
2023-05-18T00:38:04.676Z,0.38
2023-05-18T00:39:04.712Z,0.54
2023-05-18T00:40:04.686Z,0.70
2023-05-18T00:41:04.685Z,0.60
2023-05-18T00:42:04.744Z,0.69
2023-05-18T00:43:04.836Z,0.54
2023-05-18T00:44:04.973Z,0.59
2023-05-18T00:45:04.927Z,0.61
2023-05-18T00:46:05.089Z,0.55
2023-05-18T00:47:05.048Z,0.67
2023-05-18T00:48:05.164Z,0.63
2023-05-18T00:49:05.162Z,0.52
2023-05-18T00:50:05.265Z,0.65
2023-05-18T00:51:05.301Z,0.69
2023-05-18T00:52:05.358Z,0.95
2023-05-18T00:53:05.433Z,0.55
2023-05-18T00:54:05.491Z,0.67
2023-05-18T00:55:05.548Z,0.63
2023-05-18T00:56:05.599Z,0.54
2023-05-18T00:57:05.666Z,0.76
2023-05-18T00:58:05.801Z,0.67
2023-05-18T00:59:05.790Z,0.59
2023-05-18T01:00:05.860Z,0.60
2023-05-18T01:01:05.937Z,0.52
2023-05-18T01:02:05.977Z,0.46
2023-05-18T01:03:06.119Z,0.74
2023-05-18T01:04:06.075Z,0.85
2023-05-18T01:05:06.163Z,0.59
2023-05-18T01:06:06.208Z,0.78
2023-05-18T01:07:06.294Z,0.35
2023-05-18T01:08:06.341Z,0.89
2023-05-18T01:09:06.387Z,0.89
2023-05-18T01:10:06.466Z,0.74
2023-05-18T01:11:06.620Z,0.85
2023-05-18T01:12:06.588Z,0.54
2023-05-18T01:13:06.652Z,0.54
2023-05-18T01:14:06.705Z,0.75
2023-05-18T01:15:06.780Z,0.57
2023-05-18T01:16:06.841Z,0.75
2023-05-18T01:17:06.915Z,0.75
2023-05-18T01:18:06.971Z,0.50
2023-05-18T01:19:07.059Z,0.62
2023-05-18T01:20:07.099Z,0.47
2023-05-18T01:21:07.150Z,0.47
2023-05-18T01:22:07.217Z,0.79
2023-05-18T01:23:07.286Z,0.60
2023-05-18T01:24:07.335Z,0.78
2023-05-18T01:25:07.393Z,0.61
2023-05-18T01:26:07.447Z,0.84
2023-05-18T01:27:07.530Z,0.90
2023-05-18T01:28:07.603Z,0.60
2023-05-18T01:29:07.651Z,0.62
2023-05-18T01:30:07.719Z,0.45
2023-05-18T01:31:07.819Z,0.89
2023-05-18T01:32:07.837Z,0.89
2023-05-18T01:33:07.898Z,0.77
2023-05-18T01:34:07.946Z,0.65
2023-05-18T01:35:08.042Z,0.82
2023-05-18T01:36:08.076Z,0.55
2023-05-18T01:37:08.132Z,0.59
2023-05-18T01:38:08.194Z,0.65
2023-05-18T01:39:08.246Z,0.65
2023-05-18T01:40:08.338Z,0.77
2023-05-18T01:41:08.381Z,0.62
2023-05-18T01:42:08.462Z,0.51
2023-05-18T01:43:08.518Z,0.58
2023-05-18T01:44:08.600Z,0.77
2023-05-18T01:45:08.641Z,0.48
2023-05-18T01:46:08.758Z,0.50
2023-05-18T01:47:08.754Z,0.60
2023-05-18T01:48:08.842Z,0.71
2023-05-18T01:49:08.885Z,0.50
2023-05-18T01:50:08.949Z,1.01
2023-05-18T01:51:09.016Z,0.85
2023-05-18T01:52:09.090Z,0.81
2023-05-18T01:53:09.140Z,0.82
2023-05-18T01:54:09.202Z,0.77
2023-05-18T01:55:09.268Z,0.67
2023-05-18T01:56:09.331Z,0.71
2023-05-18T01:57:09.554Z,0.63
2023-05-18T01:58:09.461Z,0.45
2023-05-18T01:59:09.516Z,0.38
2023-05-18T02:00:09.593Z,0.57
2023-05-18T02:01:09.654Z,0.55
2023-05-18T02:02:09.750Z,0.89
2023-05-18T02:03:09.881Z,0.45
2023-05-18T02:04:09.899Z,0.79
2023-05-18T02:05:09.893Z,0.81
2023-05-18T02:06:09.977Z,0.74
2023-05-18T02:07:10.016Z,0.59
2023-05-18T02:08:10.103Z,0.81
2023-05-18T02:09:10.152Z,0.59
2023-05-18T02:10:10.238Z,1.06
2023-05-18T02:11:10.271Z,0.53
2023-05-18T02:12:10.337Z,0.58
2023-05-18T02:13:10.387Z,0.52
2023-05-18T02:14:10.457Z,0.76
2023-05-18T02:15:10.520Z,0.59
2023-05-18T02:16:10.600Z,0.71
2023-05-18T02:17:10.636Z,0.77
2023-05-18T02:18:10.748Z,0.58
2023-05-18T02:19:10.836Z,0.62
2023-05-18T02:20:10.840Z,0.73
2023-05-18T02:21:10.905Z,0.82
2023-05-18T02:22:10.962Z,0.77
2023-05-18T02:23:11.031Z,0.81
2023-05-18T02:24:11.074Z,0.84
2023-05-18T02:25:11.133Z,0.55
2023-05-18T02:26:11.186Z,0.93
2023-05-18T02:27:11.251Z,0.68
2023-05-18T02:28:11.320Z,0.66
2023-05-18T02:29:11.400Z,0.33
2023-05-18T02:30:13.111Z,0.56
2023-05-18T02:31:11.462Z,0.46
2023-05-18T02:32:11.558Z,0.57
2023-05-18T02:33:11.543Z,0.65
2023-05-18T02:34:11.494Z,0.70
2023-05-18T02:35:11.489Z,0.72
2023-05-18T02:36:11.479Z,0.63
2023-05-18T02:37:11.480Z,0.63
2023-05-18T02:38:11.485Z,0.59
2023-05-18T02:39:11.496Z,0.63
2023-05-18T02:40:11.540Z,0.62
2023-05-18T02:41:11.511Z,0.74
2023-05-18T02:42:11.505Z,0.69
2023-05-18T02:43:11.516Z,0.73
2023-05-18T02:44:11.600Z,0.68
2023-05-18T02:45:11.589Z,0.71
2023-05-18T02:46:11.709Z,0.72
2023-05-18T02:47:11.732Z,0.58
2023-05-18T02:48:11.849Z,0.61
2023-05-18T02:49:11.888Z,0.42
2023-05-18T02:50:11.914Z,0.99
2023-05-18T02:51:12.005Z,0.74
2023-05-18T02:52:12.067Z,1.06
2023-05-18T02:53:12.110Z,0.91
2023-05-18T02:54:12.212Z,1.03
2023-05-18T02:55:12.274Z,0.99
2023-05-18T02:56:12.321Z,1.27
2023-05-18T02:57:12.364Z,1.33
2023-05-18T02:58:12.370Z,1.08
2023-05-18T02:59:12.381Z,1.68
2023-05-18T03:00:12.399Z,1.24
2023-05-18T03:01:12.533Z,1.75
2023-05-18T03:02:12.596Z,1.46
2023-05-18T03:03:12.773Z,1.51
2023-05-18T03:04:12.613Z,1.18
2023-05-18T03:05:12.695Z,1.29
2023-05-18T03:06:12.742Z,1.46
2023-05-18T03:07:12.734Z,1.62
2023-05-18T03:08:12.772Z,1.51
2023-05-18T03:09:12.794Z,1.45
2023-05-18T03:10:12.828Z,1.58
2023-05-18T03:11:12.884Z,1.47
2023-05-18T03:12:12.913Z,1.72
2023-05-18T03:13:12.933Z,1.29
2023-05-18T03:14:12.988Z,1.51
2023-05-18T03:15:13.035Z,1.20
2023-05-18T03:16:13.088Z,1.47
2023-05-18T03:17:13.110Z,1.33
2023-05-18T03:18:13.134Z,1.30
2023-05-18T03:19:13.240Z,1.68
2023-05-18T03:20:13.229Z,1.71
2023-05-18T03:21:13.268Z,1.44
2023-05-18T03:22:13.314Z,1.55
2023-05-18T03:23:13.359Z,1.89
2023-05-18T03:24:13.392Z,1.92
2023-05-18T03:25:13.465Z,1.60
2023-05-18T03:26:13.507Z,1.77
2023-05-18T03:27:13.563Z,1.58
2023-05-18T03:28:13.631Z,2.00
2023-05-18T03:29:13.821Z,1.60
2023-05-18T03:30:13.727Z,1.68
2023-05-18T03:31:13.785Z,2.36
2023-05-18T03:32:13.828Z,1.69
2023-05-18T03:33:13.939Z,1.46
2023-05-18T03:34:13.932Z,1.51
2023-05-18T03:35:14.012Z,1.58
2023-05-18T03:36:14.051Z,1.54
2023-05-18T03:37:14.101Z,1.35
2023-05-18T03:38:14.182Z,1.33
2023-05-18T03:39:14.224Z,1.42
2023-05-18T03:40:14.308Z,1.88
2023-05-18T03:41:14.361Z,1.64
2023-05-18T03:42:14.435Z,1.37
2023-05-18T03:43:14.498Z,1.51
2023-05-18T03:44:14.541Z,1.37
2023-05-18T03:45:14.581Z,1.76
2023-05-18T03:46:14.579Z,1.72
2023-05-18T03:47:14.589Z,1.85
2023-05-18T03:48:14.676Z,1.67
2023-05-18T03:49:14.619Z,1.95
2023-05-18T03:50:14.643Z,1.52
2023-05-18T03:51:14.650Z,1.63
2023-05-18T03:52:14.681Z,1.80
2023-05-18T03:53:14.670Z,1.41
2023-05-18T03:54:14.688Z,1.54
2023-05-18T03:55:14.703Z,1.38
2023-05-18T03:56:14.722Z,1.92
2023-05-18T03:57:14.744Z,1.92
2023-05-18T03:58:14.802Z,1.85
2023-05-18T03:59:14.863Z,1.90
2023-05-18T04:00:14.927Z,1.86
2023-05-18T04:01:15.001Z,1.93
2023-05-18T04:02:15.095Z,1.86
2023-05-18T04:03:15.189Z,1.71
2023-05-18T04:04:15.157Z,1.61
2023-05-18T04:05:15.126Z,1.59
2023-05-18T04:06:15.141Z,1.80
2023-05-18T04:07:15.585Z,1.97
2023-05-18T04:08:15.151Z,1.60
2023-05-18T04:09:15.189Z,1.97
2023-05-18T04:10:15.201Z,1.66
2023-05-18T04:11:15.214Z,1.85
2023-05-18T04:12:15.208Z,1.54
2023-05-18T04:13:15.234Z,1.61
2023-05-18T04:14:15.240Z,1.69
2023-05-18T04:15:15.252Z,1.72
2023-05-18T04:16:15.325Z,1.78
2023-05-18T04:17:15.277Z,2.01
2023-05-18T04:18:15.295Z,1.76
2023-05-18T04:19:15.409Z,1.77
2023-05-18T04:20:15.348Z,1.77
2023-05-18T04:21:15.337Z,1.59
2023-05-18T04:22:15.363Z,1.93
2023-05-18T04:23:15.404Z,1.50
2023-05-18T04:24:15.478Z,1.93
2023-05-18T04:25:15.546Z,1.77
2023-05-18T04:26:15.608Z,1.73
2023-05-18T04:27:15.627Z,1.95
2023-05-18T04:28:15.626Z,1.79
2023-05-18T04:29:15.675Z,1.59
2023-05-18T04:30:15.661Z,1.83
2023-05-18T04:31:15.659Z,1.55
2023-05-18T04:32:15.704Z,2.11
2023-05-18T04:33:15.745Z,1.83
2023-05-18T04:34:15.695Z,1.85
2023-05-18T04:35:15.721Z,1.94
2023-05-18T04:36:15.757Z,2.03
2023-05-18T04:37:15.811Z,1.83
2023-05-18T04:38:15.895Z,1.65
2023-05-18T04:39:15.995Z,1.88
2023-05-18T04:40:16.054Z,1.52
2023-05-18T04:41:16.118Z,1.93
2023-05-18T04:42:16.195Z,1.50
2023-05-18T04:43:16.255Z,2.07
2023-05-18T04:44:16.327Z,1.59
2023-05-18T04:45:16.421Z,1.89
2023-05-18T04:46:16.541Z,2.17
2023-05-18T04:47:16.550Z,1.57
2023-05-18T04:48:16.612Z,1.43
2023-05-18T04:49:16.682Z,1.86
2023-05-18T04:50:16.717Z,2.18
2023-05-18T04:51:16.728Z,1.89
2023-05-18T04:52:16.724Z,2.25
2023-05-18T04:53:16.744Z,1.56
2023-05-18T04:54:16.761Z,1.61
2023-05-18T04:55:16.801Z,1.88
2023-05-18T04:56:16.788Z,1.78
2023-05-18T04:57:16.805Z,1.87
2023-05-18T04:58:16.856Z,1.95
2023-05-18T04:59:16.935Z,2.02
2023-05-18T05:00:17.029Z,2.11
2023-05-18T05:01:17.173Z,1.72
2023-05-18T05:02:17.241Z,1.99
2023-05-18T05:03:17.306Z,1.90
2023-05-18T05:04:17.284Z,1.82
2023-05-18T05:05:17.378Z,1.83
2023-05-18T05:06:17.464Z,1.76
2023-05-18T05:07:17.521Z,1.81
2023-05-18T05:08:17.597Z,1.94
2023-05-18T05:09:17.659Z,1.99
2023-05-18T05:10:17.748Z,1.76
2023-05-18T05:11:17.828Z,1.95
2023-05-18T05:12:17.883Z,1.72
2023-05-18T05:13:17.990Z,1.88
2023-05-18T05:14:18.057Z,1.69
2023-05-18T05:15:18.207Z,1.96
2023-05-18T05:16:18.300Z,1.74
2023-05-18T05:17:18.283Z,1.59
2023-05-18T05:18:18.379Z,1.67
2023-05-18T05:19:18.517Z,1.92
2023-05-18T05:20:18.489Z,1.86
2023-05-18T05:21:18.478Z,2.07
2023-05-18T05:22:18.494Z,2.02
2023-05-18T05:23:18.599Z,2.04
2023-05-18T05:24:18.629Z,2.05
2023-05-18T05:25:18.569Z,1.89
2023-05-18T05:26:18.553Z,1.91
2023-05-18T05:27:18.562Z,2.46
2023-05-18T05:28:18.597Z,2.23
2023-05-18T05:29:18.665Z,2.09
2023-05-18T05:30:18.747Z,2.44
2023-05-18T05:31:18.849Z,2.28
2023-05-18T05:32:18.883Z,2.04
2023-05-18T05:33:18.962Z,2.07
2023-05-18T05:34:19.017Z,2.09
2023-05-18T05:35:19.080Z,2.21
2023-05-18T05:36:19.101Z,2.12
2023-05-18T05:37:19.166Z,2.95
2023-05-18T05:38:19.238Z,2.61
2023-05-18T05:39:19.326Z,2.72
2023-05-18T05:40:19.417Z,2.40
2023-05-18T05:41:19.449Z,2.64
2023-05-18T05:42:19.537Z,2.21
2023-05-18T05:43:19.620Z,2.55
2023-05-18T05:44:19.675Z,2.21
2023-05-18T05:45:19.749Z,2.24
2023-05-18T05:46:19.890Z,2.25
2023-05-18T05:47:19.916Z,1.88
2023-05-18T05:48:20.042Z,2.26
2023-05-18T05:49:20.076Z,1.97
2023-05-18T05:50:20.155Z,2.17
2023-05-18T05:51:20.258Z,2.03
2023-05-18T05:52:20.340Z,2.12
2023-05-18T05:53:20.386Z,2.63
2023-05-18T05:54:20.457Z,2.26
2023-05-18T05:55:20.571Z,2.46
2023-05-18T05:56:20.652Z,2.94
2023-05-18T05:57:20.691Z,2.78
2023-05-18T05:58:20.781Z,2.61
2023-05-18T05:59:20.875Z,2.80
2023-05-18T06:00:20.919Z,3.13
2023-05-18T06:01:20.987Z,3.00
2023-05-18T06:02:21.094Z,2.38
2023-05-18T06:03:21.210Z,2.29
2023-05-18T06:04:21.296Z,2.29
2023-05-18T06:05:21.333Z,2.48
2023-05-18T06:06:21.410Z,2.08
2023-05-18T06:07:21.504Z,2.43
2023-05-18T06:08:21.598Z,2.53
2023-05-18T06:09:21.662Z,2.72
2023-05-18T06:10:21.769Z,2.77
2023-05-18T06:11:21.814Z,2.67
2023-05-18T06:12:21.892Z,2.10
2023-05-18T06:13:21.953Z,2.56
2023-05-18T06:14:22.051Z,2.29
2023-05-18T06:15:22.119Z,2.49
2023-05-18T06:16:22.261Z,1.88
2023-05-18T06:17:22.254Z,2.00
2023-05-18T06:18:22.343Z,1.88
2023-05-18T06:19:22.425Z,3.00
2023-05-18T06:20:22.481Z,2.60
2023-05-18T06:21:22.532Z,2.88
2023-05-18T06:22:22.605Z,2.93
2023-05-18T06:23:22.697Z,2.53
2023-05-18T06:24:22.747Z,2.55
2023-05-18T06:25:22.829Z,2.78
2023-05-18T06:26:22.895Z,2.67
2023-05-18T06:27:22.976Z,2.81
2023-05-18T06:28:23.054Z,2.47
2023-05-18T06:29:23.125Z,2.16
2023-05-18T06:30:23.179Z,2.38
2023-05-18T06:31:23.306Z,2.43
2023-05-18T06:32:23.385Z,2.44
2023-05-18T06:33:23.394Z,2.30
2023-05-18T06:34:23.464Z,2.23
2023-05-18T06:35:23.554Z,2.14
2023-05-18T06:36:23.625Z,2.60
2023-05-18T06:37:23.694Z,2.70
2023-05-18T06:38:23.752Z,2.50
2023-05-18T06:39:23.823Z,2.51
2023-05-18T06:40:23.916Z,1.99
2023-05-18T06:41:23.978Z,2.12
2023-05-18T06:42:24.029Z,2.14
2023-05-18T06:43:24.093Z,2.36
2023-05-18T06:44:24.231Z,2.18
2023-05-18T06:45:24.258Z,2.57
2023-05-18T06:46:24.364Z,2.82
2023-05-18T06:47:24.399Z,2.61
2023-05-18T06:48:24.442Z,2.88
2023-05-18T06:49:24.504Z,3.14
2023-05-18T06:50:24.563Z,2.87
2023-05-18T06:51:24.653Z,2.85
2023-05-18T06:52:26.992Z,2.98
2023-05-18T06:53:24.717Z,2.17
2023-05-18T06:54:24.741Z,2.45
2023-05-18T06:55:24.753Z,2.81
2023-05-18T06:56:24.748Z,2.38
2023-05-18T06:57:24.779Z,2.66
2023-05-18T06:58:24.774Z,2.82
2023-05-18T06:59:24.779Z,2.75
2023-05-18T07:00:24.802Z,2.65
2023-05-18T07:01:24.829Z,2.04
2023-05-18T07:02:24.854Z,2.37
2023-05-18T07:03:24.918Z,2.26
2023-05-18T07:04:24.954Z,2.46
2023-05-18T07:05:25.033Z,2.04
2023-05-18T07:06:25.072Z,2.39
2023-05-18T07:07:25.151Z,2.56
2023-05-18T07:08:25.226Z,2.00
2023-05-18T07:09:25.262Z,2.44
2023-05-18T07:10:25.338Z,2.46
2023-05-18T07:11:26.297Z,2.41
2023-05-18T07:12:25.401Z,2.43
2023-05-18T07:13:25.420Z,1.94
2023-05-18T07:14:25.463Z,1.63
2023-05-18T07:15:25.470Z,2.03
2023-05-18T07:16:25.659Z,1.87
2023-05-18T07:17:25.510Z,1.67
2023-05-18T07:18:25.504Z,2.04
2023-05-18T07:19:25.541Z,1.73
2023-05-18T07:20:26.534Z,1.73
2023-05-18T07:21:25.574Z,2.00
2023-05-18T07:22:25.588Z,1.73
2023-05-18T07:23:25.590Z,1.45
2023-05-18T07:24:25.600Z,2.14
2023-05-18T07:25:25.603Z,1.98
2023-05-18T07:26:25.643Z,2.03
2023-05-18T07:27:25.652Z,1.81
2023-05-18T07:28:25.692Z,2.05
2023-05-18T07:29:25.697Z,1.96
2023-05-18T07:30:25.733Z,1.83
2023-05-18T07:31:25.808Z,1.97
2023-05-18T07:32:25.748Z,2.43
2023-05-18T07:33:25.759Z,1.63
2023-05-18T07:34:25.808Z,2.18
2023-05-18T07:35:25.820Z,1.80
2023-05-18T07:36:25.820Z,1.85
2023-05-18T07:37:25.834Z,2.03
2023-05-18T07:38:25.854Z,2.11
2023-05-18T07:39:25.863Z,1.88
2023-05-18T07:40:25.884Z,1.41
2023-05-18T07:41:25.910Z,1.48
2023-05-18T07:42:25.918Z,2.12
2023-05-18T07:43:25.931Z,2.03
2023-05-18T07:44:25.933Z,2.03
2023-05-18T07:45:25.981Z,2.03
2023-05-18T07:46:26.061Z,2.11
2023-05-18T07:47:26.127Z,2.09
2023-05-18T07:48:26.188Z,2.01
2023-05-18T07:49:26.231Z,1.98
2023-05-18T07:50:26.343Z,2.03
2023-05-18T07:51:26.350Z,1.74
2023-05-18T07:52:26.476Z,1.95
2023-05-18T07:53:26.497Z,1.81
2023-05-18T07:54:26.558Z,1.58
2023-05-18T07:55:26.666Z,1.78
2023-05-18T07:56:26.705Z,1.83
2023-05-18T07:57:26.768Z,1.92
2023-05-18T07:58:26.828Z,1.62
2023-05-18T07:59:26.881Z,1.80
2023-05-18T08:00:26.951Z,1.86
2023-05-18T08:01:27.001Z,1.75
2023-05-18T08:02:27.167Z,1.92
2023-05-18T08:03:27.214Z,1.85
2023-05-18T08:04:27.281Z,1.72
2023-05-18T08:05:27.236Z,1.86
2023-05-18T08:06:27.249Z,1.64
2023-05-18T08:07:27.261Z,1.61
2023-05-18T08:08:27.261Z,1.59
2023-05-18T08:09:27.285Z,1.71
2023-05-18T08:10:27.303Z,1.40
2023-05-18T08:11:27.316Z,2.14
2023-05-18T08:12:27.324Z,2.03
2023-05-18T08:13:27.351Z,1.98
2023-05-18T08:14:27.364Z,1.93
2023-05-18T08:15:27.359Z,1.56
2023-05-18T08:16:27.370Z,1.55
2023-05-18T08:17:27.487Z,1.56
2023-05-18T08:18:27.516Z,1.47
2023-05-18T08:19:27.613Z,1.52
2023-05-18T08:20:27.633Z,1.91
2023-05-18T08:21:27.686Z,1.85
2023-05-18T08:22:27.746Z,1.86
2023-05-18T08:23:27.821Z,1.68
2023-05-18T08:24:27.887Z,1.94
2023-05-18T08:25:28.006Z,1.82
2023-05-18T08:26:28.007Z,2.01
2023-05-18T08:27:28.077Z,1.91
2023-05-18T08:28:28.118Z,1.58
2023-05-18T08:29:28.171Z,1.72
2023-05-18T08:30:28.250Z,1.68
2023-05-18T08:31:28.371Z,1.85
2023-05-18T08:32:28.396Z,2.13
2023-05-18T08:33:28.422Z,1.83
2023-05-18T08:34:28.485Z,1.79
2023-05-18T08:35:28.752Z,1.57
2023-05-18T08:36:28.578Z,1.83
2023-05-18T08:37:28.621Z,1.85
2023-05-18T08:38:28.685Z,1.63
2023-05-18T08:39:28.741Z,1.53
2023-05-18T08:40:28.807Z,1.70
2023-05-18T08:41:28.856Z,2.07
2023-05-18T08:42:37.718Z,1.69
2023-05-18T08:43:30.280Z,2.23
2023-05-18T08:44:28.921Z,1.84
2023-05-18T08:46:28.971Z,1.75
2023-05-18T08:47:28.984Z,1.91
2023-05-18T08:48:29.034Z,1.81
2023-05-18T08:49:28.974Z,1.83
2023-05-18T08:50:29.124Z,2.42
2023-05-18T08:51:28.998Z,2.41
2023-05-18T08:52:29.008Z,2.34
2023-05-18T08:53:29.043Z,1.71
2023-05-18T08:54:29.052Z,2.34
2023-05-18T08:55:29.169Z,1.83
2023-05-18T08:56:29.099Z,1.57
2023-05-18T08:57:29.145Z,1.74
2023-05-18T08:58:29.169Z,1.74
2023-05-18T08:59:29.200Z,1.18
2023-05-18T09:00:29.410Z,1.71
2023-05-18T09:01:29.599Z,1.69
2023-05-18T09:02:29.333Z,1.69
2023-05-18T09:03:29.337Z,1.71
2023-05-18T09:04:29.341Z,1.75
2023-05-18T09:05:29.727Z,1.84
2023-05-18T09:06:29.349Z,1.68
2023-05-18T09:07:29.374Z,1.84
2023-05-18T09:08:29.362Z,1.56
2023-05-18T09:09:29.361Z,1.77
2023-05-18T09:10:29.371Z,1.76
2023-05-18T09:11:29.361Z,1.47
2023-05-18T09:12:29.380Z,1.45
2023-05-18T09:13:29.359Z,2.08
2023-05-18T09:14:29.374Z,1.28
2023-05-18T09:15:29.725Z,1.72
2023-05-18T09:16:29.626Z,1.73
2023-05-18T09:17:29.574Z,1.53
2023-05-18T09:18:29.551Z,1.74
2023-05-18T09:19:29.597Z,1.90
2023-05-18T09:20:29.573Z,1.67
2023-05-18T09:21:29.549Z,2.06
2023-05-18T09:22:29.548Z,2.18
2023-05-18T09:23:29.532Z,1.82
2023-05-18T09:24:29.560Z,1.52
2023-05-18T09:25:29.730Z,1.90
2023-05-18T09:26:29.570Z,1.61
2023-05-18T09:27:29.545Z,1.79
2023-05-18T09:28:29.533Z,1.73
2023-05-18T09:29:31.137Z,1.69
2023-05-18T09:30:29.617Z,1.81
2023-05-18T09:31:29.591Z,1.37
2023-05-18T09:32:29.556Z,1.62
2023-05-18T09:33:29.705Z,2.01
2023-05-18T09:34:29.576Z,1.68
2023-05-18T09:35:29.836Z,2.10
2023-05-18T09:36:29.556Z,1.76
2023-05-18T09:37:29.549Z,1.46
2023-05-18T09:38:29.553Z,1.69
2023-05-18T09:39:29.556Z,2.14
2023-05-18T09:40:29.604Z,1.74
2023-05-18T09:41:29.623Z,1.51
2023-05-18T09:42:29.653Z,1.92
2023-05-18T09:43:29.691Z,1.37
2023-05-18T09:44:29.729Z,1.82
2023-05-18T09:45:29.951Z,1.59
2023-05-18T09:46:29.829Z,1.62
2023-05-18T09:47:29.867Z,1.85
2023-05-18T09:48:29.857Z,1.74
2023-05-18T09:49:29.867Z,1.35
2023-05-18T09:50:29.890Z,1.75
2023-05-18T09:51:29.887Z,1.92
2023-05-18T09:52:29.870Z,1.89
2023-05-18T09:53:29.861Z,2.17
2023-05-18T09:54:29.866Z,1.61
2023-05-18T09:55:30.035Z,1.58
2023-05-18T09:56:29.854Z,1.85
2023-05-18T09:57:29.866Z,1.49
2023-05-18T09:58:29.823Z,1.49
2023-05-18T09:59:29.836Z,1.84
2023-05-18T10:00:29.839Z,1.97
2023-05-18T10:01:29.870Z,1.51
2023-05-18T10:02:29.840Z,1.82
2023-05-18T10:03:29.819Z,1.74
2023-05-18T10:04:29.843Z,1.58
2023-05-18T10:05:30.302Z,1.63
2023-05-18T10:06:29.845Z,1.65
2023-05-18T10:07:29.847Z,1.40
2023-05-18T10:08:29.815Z,1.73
2023-05-18T10:09:29.816Z,1.56
2023-05-18T10:10:30.151Z,1.60
2023-05-18T10:11:29.812Z,1.83
2023-05-18T10:12:29.816Z,1.69
2023-05-18T10:13:29.814Z,1.59
2023-05-18T10:14:31.399Z,1.70
2023-05-18T10:15:30.062Z,1.38
2023-05-18T10:16:29.960Z,1.49
2023-05-18T10:17:30.128Z,1.54
2023-05-18T10:18:30.129Z,1.61
2023-05-18T10:19:30.203Z,1.35
2023-05-18T10:20:30.319Z,1.46
2023-05-18T10:21:30.283Z,1.47
2023-05-18T10:22:30.333Z,1.39
2023-05-18T10:23:30.447Z,1.90
2023-05-18T10:24:30.466Z,1.37
2023-05-18T10:25:30.508Z,1.68
2023-05-18T10:26:30.599Z,1.49
2023-05-18T10:27:30.634Z,1.75
2023-05-18T10:28:30.737Z,1.89
2023-05-18T10:29:30.736Z,1.33
2023-05-18T10:30:31.018Z,1.28
2023-05-18T10:31:30.897Z,1.64
2023-05-18T10:32:30.963Z,1.42
2023-05-18T10:33:31.011Z,1.60
2023-05-18T10:34:31.000Z,1.25
2023-05-18T10:35:31.064Z,1.45
2023-05-18T10:36:31.105Z,1.37
2023-05-18T10:37:31.179Z,1.37
2023-05-18T10:38:31.220Z,1.47
2023-05-18T10:39:31.258Z,1.25
2023-05-18T10:40:31.423Z,1.31
2023-05-18T10:41:31.328Z,1.47
2023-05-18T10:42:31.395Z,1.52
2023-05-18T10:43:31.468Z,1.67
2023-05-18T10:44:31.493Z,1.91
2023-05-18T10:45:31.527Z,1.83
2023-05-18T10:46:31.625Z,1.55
2023-05-18T10:47:31.784Z,1.32
2023-05-18T10:48:31.688Z,1.39
2023-05-18T10:49:31.554Z,1.26
2023-05-18T10:50:31.750Z,1.37
2023-05-18T10:51:31.547Z,1.61
2023-05-18T10:52:31.554Z,1.62
2023-05-18T10:53:31.573Z,1.51
2023-05-18T10:54:31.559Z,1.69
2023-05-18T10:55:31.551Z,1.42
2023-05-18T10:56:31.514Z,1.41
2023-05-18T10:57:31.524Z,1.55
2023-05-18T10:58:31.510Z,1.42
2023-05-18T10:59:31.503Z,1.39
2023-05-18T11:00:31.701Z,1.56
2023-05-18T11:01:31.551Z,1.26
2023-05-18T11:02:31.567Z,1.41
2023-05-18T11:03:31.561Z,1.81
2023-05-18T11:04:31.633Z,1.28
2023-05-18T11:05:31.629Z,1.14
2023-05-18T11:06:31.661Z,1.12
2023-05-18T11:07:31.686Z,1.47
2023-05-18T11:08:31.709Z,1.13
2023-05-18T11:09:31.724Z,1.36
2023-05-18T11:10:31.954Z,1.23
2023-05-18T11:11:31.759Z,1.25
2023-05-18T11:12:31.794Z,1.36
2023-05-18T11:13:31.808Z,1.58
2023-05-18T11:14:31.845Z,1.17
2023-05-18T11:15:31.897Z,1.25
2023-05-18T11:16:31.873Z,1.73
2023-05-18T11:17:31.903Z,1.28
2023-05-18T11:18:31.892Z,1.30
2023-05-18T11:19:31.911Z,1.05
2023-05-18T11:20:32.146Z,1.52
2023-05-18T11:21:31.928Z,1.33
2023-05-18T11:22:31.941Z,0.81
2023-05-18T11:23:31.941Z,1.74
2023-05-18T11:24:31.935Z,1.41
2023-05-18T11:25:31.939Z,1.10
2023-05-18T11:26:31.912Z,1.19
2023-05-18T11:27:31.914Z,1.09
2023-05-18T11:28:31.905Z,1.40
2023-05-18T11:29:31.891Z,1.35
2023-05-18T11:30:31.989Z,1.42
2023-05-18T11:31:31.911Z,1.81
2023-05-18T11:32:31.945Z,1.44
2023-05-18T11:33:31.876Z,1.20
2023-05-18T11:34:31.857Z,1.39
2023-05-18T11:35:31.844Z,1.35
2023-05-18T11:36:31.828Z,1.64
2023-05-18T11:37:31.831Z,1.32
2023-05-18T11:38:31.812Z,1.44
2023-05-18T11:39:31.807Z,1.52
2023-05-18T11:40:31.932Z,1.57
2023-05-18T11:41:31.795Z,1.33
2023-05-18T11:42:31.804Z,1.64
2023-05-18T11:43:31.772Z,1.58
2023-05-18T11:44:31.761Z,1.40
2023-05-18T11:45:31.740Z,0.96
2023-05-18T11:46:31.733Z,1.15
2023-05-18T11:47:31.814Z,1.40
2023-05-18T11:48:31.787Z,1.55
2023-05-18T11:49:31.705Z,1.25
2023-05-18T11:50:31.943Z,1.14
2023-05-18T11:51:31.683Z,1.13
2023-05-18T11:52:31.673Z,1.26
2023-05-18T11:53:31.660Z,1.26
2023-05-18T11:54:31.633Z,1.12
2023-05-18T11:55:31.637Z,1.29
2023-05-18T11:56:31.626Z,1.69
2023-05-18T11:57:31.633Z,1.44
2023-05-18T11:58:31.617Z,1.41
2023-05-18T11:59:31.619Z,1.43
2023-05-18T12:00:31.791Z,1.15
2023-05-18T12:01:31.587Z,1.22
2023-05-18T12:02:31.705Z,1.44
2023-05-18T12:03:31.726Z,1.09
2023-05-18T12:04:31.725Z,1.52
2023-05-18T12:05:31.731Z,1.16
2023-05-18T12:06:31.736Z,1.27
2023-05-18T12:07:31.716Z,1.18
2023-05-18T12:08:31.724Z,1.37
2023-05-18T12:09:31.763Z,1.23
2023-05-18T12:10:32.200Z,1.26
2023-05-18T12:11:31.802Z,1.19
2023-05-18T12:12:31.825Z,1.28
2023-05-18T12:13:31.791Z,1.27
2023-05-18T12:14:31.788Z,1.50
2023-05-18T12:15:31.794Z,1.24
2023-05-18T12:16:31.839Z,1.25
2023-05-18T12:17:31.917Z,1.28
2023-05-18T12:18:31.781Z,1.12
2023-05-18T12:19:31.785Z,1.21
2023-05-18T12:20:32.026Z,1.23
2023-05-18T12:21:31.798Z,1.12
2023-05-18T12:22:31.774Z,1.20
2023-05-18T12:23:31.810Z,0.93
2023-05-18T12:24:31.770Z,1.13
2023-05-18T12:25:31.970Z,1.03
2023-05-18T12:26:31.760Z,1.01
2023-05-18T12:27:31.778Z,1.19
2023-05-18T12:28:31.746Z,1.16
2023-05-18T12:29:31.733Z,1.22
2023-05-18T12:30:31.739Z,1.27
2023-05-18T12:31:31.784Z,1.01
2023-05-18T12:32:31.759Z,1.04
2023-05-18T12:33:31.724Z,1.07
2023-05-18T12:34:31.739Z,1.15
2023-05-18T12:35:32.108Z,0.87
2023-05-18T12:36:31.695Z,1.11
2023-05-18T12:37:41.679Z,1.01
2023-05-18T12:38:32.704Z,1.34
2023-05-18T12:39:31.686Z,0.98
2023-05-18T12:40:31.702Z,1.46
2023-05-18T12:41:31.692Z,0.98
2023-05-18T12:42:31.680Z,1.02
2023-05-18T12:43:31.668Z,0.86
2023-05-18T12:44:31.682Z,1.08
2023-05-18T12:45:31.944Z,1.15
2023-05-18T12:46:31.706Z,1.05
2023-05-18T12:47:31.770Z,1.13
2023-05-18T12:48:31.670Z,1.24
2023-05-18T12:49:31.658Z,0.97
2023-05-18T12:50:31.655Z,0.94
2023-05-18T12:51:31.674Z,1.10
2023-05-18T12:52:31.641Z,1.35
2023-05-18T12:53:31.632Z,1.20
2023-05-18T12:54:31.632Z,1.62
2023-05-18T12:55:31.986Z,1.31
2023-05-18T12:56:31.621Z,0.80
2023-05-18T12:57:31.680Z,1.13
2023-05-18T12:58:31.645Z,1.36
2023-05-18T12:59:31.612Z,1.30
2023-05-18T13:00:31.620Z,0.98
2023-05-18T13:01:31.631Z,1.01
2023-05-18T13:02:31.855Z,1.27
2023-05-18T13:03:31.670Z,1.03
2023-05-18T13:04:31.600Z,1.37
2023-05-18T13:05:31.809Z,1.03
2023-05-18T13:06:31.628Z,1.06
2023-05-18T13:07:31.642Z,1.10
2023-05-18T13:08:31.649Z,1.06
2023-05-18T13:09:31.685Z,1.20
2023-05-18T13:10:31.699Z,0.95
2023-05-18T13:11:31.699Z,1.16
2023-05-18T13:12:31.718Z,1.21
2023-05-18T13:13:31.763Z,1.04
2023-05-18T13:14:31.810Z,0.98
2023-05-18T13:15:32.064Z,1.32
2023-05-18T13:16:31.917Z,0.85
2023-05-18T13:17:31.983Z,1.13
2023-05-18T13:18:31.959Z,0.76
2023-05-18T13:19:32.035Z,1.28